BGSF Airport Information

Runway Information
Runway 09 Length 9219 ft width 197 ft
Elevation 100 ft Threshold 0 ft Heading 62
Runway 27 Length 9219 ft Width 197 ft
Elevation 165 ft Threshold 0 ft Heading 242
Airport Frequencies
Type A/D Name APP/DEP Frequency 126.2 MHZ
Type RDO Name RDO Frequency 121.3 MHZ
Type TWR Name TWR Frequency 118.3 MHZ
Airport Navaids
Type NDB Name Sondre Stromfjord Frequency 382 KHZ
Airport Weather Information & NOTAM
ADDS - METARS form results

(1809 UTC 18 July 2018)
 
METAR text: BGSF 181750Z AUTO 09005KT 020V150 9999NDV OVC035/// 16/07 Q1008
Conditions at: BGSF (SONDRE STROMFJOR, GL) observed 1750 UTC 18 July 2018
Temperature: 16.0°C (61°F)
Dewpoint: 7.0°C (45°F) [RH = 55%]
Pressure (altimeter): 29.76 inches Hg (1008.0 mb)
Winds: from the E (90 degrees) at 6 MPH (5 knots; 2.6 m/s)
Visibility: missing
Ceiling: 3500 feet AGL
Clouds: overcast cloud deck at 3500 feet AGL
Weather: no significant weather observed at this time